Time;durP1;ratioP1;P1;durP2;ratioP2;P2;SDS_P1;SDS_P2;PMS_P1;PMS_P2;Temp;Humidity;BMP_temperature;BMP_pressure;BME280_temperature;BME280_humidity;BME280_pressure;Samples;Min_cycle;Max_cycle;Signal;HPM_P1;HPM_P2
2021/03/05 00:01:33;;;;;;;43.40;29.40;;;;;;;8.55;65.13;100753.59;5047007;28;20048;-77
2021/03/05 00:04:37;;;;;;;37.70;28.90;;;;;;;8.58;64.75;100746.22;5047409;28;20059;-72
2021/03/05 00:07:42;;;;;;;44.17;29.55;;;;;;;8.66;64.90;100745.66;5048151;28;20064;-72
2021/03/05 00:10:46;;;;;;;43.50;28.77;;;;;;;8.62;64.61;100738.78;5049613;28;20499;-73
2021/03/05 00:13:51;;;;;;;37.67;29.08;;;;;;;8.55;64.64;100750.91;5049920;28;20048;-73
2021/03/05 00:16:55;;;;;;;41.33;27.88;;;;;;;8.50;64.85;100753.94;5053780;28;20507;-74
2021/03/05 00:20:00;;;;;;;40.67;29.05;;;;;;;8.42;64.96;100746.47;5054192;28;20052;-71
2021/03/05 00:23:05;;;;;;;39.78;25.95;;;;;;;8.43;64.85;100740.16;5054934;28;20503;-72
2021/03/05 00:26:10;;;;;;;37.53;28.58;;;;;;;8.43;65.04;100737.47;5055396;28;20048;-73
2021/03/05 00:29:14;;;;;;;36.55;27.75;;;;;;;8.43;65.13;100734.81;5053314;28;20392;-71
2021/03/05 00:32:19;;;;;;;35.35;26.73;;;;;;;8.52;64.60;100735.09;5053776;28;20048;-72
2021/03/05 00:35:23;;;;;;;37.03;25.67;;;;;;;8.59;64.39;100729.19;5047856;28;20052;-73
2021/03/05 00:38:28;;;;;;;37.00;25.35;;;;;;;8.53;64.43;100729.63;5049362;28;20055;-72
2021/03/05 00:41:33;;;;;;;34.33;25.75;;;;;;;8.54;64.51;100725.16;5050424;28;20543;-72
2021/03/05 00:44:37;;;;;;;39.33;26.23;;;;;;;8.58;63.96;100721.25;5050391;28;20048;-73
2021/03/05 00:47:42;;;;;;;39.08;25.90;;;;;;;8.52;64.14;100716.38;5053108;28;20044;-74
2021/03/05 00:50:46;;;;;;;36.85;24.85;;;;;;;8.52;63.90;100721.72;5048929;28;20068;-74
2021/03/05 00:53:51;;;;;;;34.92;24.05;;;;;;;8.47;64.40;100716.69;5051462;28;20044;-76
2021/03/05 00:56:56;;;;;;;32.55;21.30;;;;;;;8.44;64.41;100723.13;5034111;28;20041;-73
2021/03/05 01:00:01;;;;;;;32.40;23.52;;;;;;;8.43;64.54;100718.75;5050468;28;20044;-73
2021/03/05 01:03:08;;;;;;;32.90;22.15;;;;;;;8.43;64.45;100716.09;5037992;28;20040;-73
2021/03/05 01:06:13;;;;;;;32.67;20.17;;;;;;;8.41;64.58;100719.84;5049101;28;20401;-77
2021/03/05 01:09:24;;;;;;;28.45;19.13;;;;;;;8.48;64.29;100716.59;5057130;28;20067;-73
2021/03/05 01:12:28;;;;;;;28.88;19.02;;;;;;;8.61;63.85;100716.56;5052089;28;20115;-77
2021/03/05 01:15:33;;;;;;;27.02;18.33;;;;;;;8.63;63.97;100709.25;5047508;28;20045;-77
2021/03/05 01:18:37;;;;;;;29.25;18.10;;;;;;;8.67;63.67;100715.22;5051366;28;20040;-76
2021/03/05 01:21:41;;;;;;;22.42;17.02;;;;;;;8.62;63.38;100712.03;5053047;28;20475;-72
2021/03/05 01:24:45;;;;;;;25.08;16.35;;;;;;;8.68;63.41;100717.81;5051414;28;20048;-71
2021/03/05 01:27:50;;;;;;;23.65;16.10;;;;;;;8.71;63.08;100706.88;5051131;28;20048;-73
2021/03/05 01:30:55;;;;;;;21.15;15.70;;;;;;;8.76;63.14;100704.72;5035587;28;20395;-74
2021/03/05 01:33:59;;;;;;;27.67;16.17;;;;;;;8.88;63.05;100708.28;5050075;28;20045;-74
2021/03/05 01:37:03;;;;;;;28.13;18.65;;;;;;;8.89;62.93;100704.63;5048769;28;20051;-70
2021/03/05 01:40:13;;;;;;;25.80;17.23;;;;;;;8.84;62.96;100696.13;5049621;28;20048;-75
2021/03/05 01:43:18;;;;;;;25.10;17.70;;;;;;;8.81;63.02;100690.97;5052194;28;20060;-75
2021/03/05 01:46:24;;;;;;;28.73;19.25;;;;;;;8.79;63.04;100683.06;5047525;28;20048;-76
2021/03/05 01:49:28;;;;;;;25.13;18.45;;;;;;;8.85;62.70;100677.25;5051053;28;20063;-74
2021/03/05 01:52:32;;;;;;;26.88;20.73;;;;;;;8.85;62.71;100682.59;5053762;28;20063;-74
2021/03/05 01:55:36;;;;;;;25.85;20.33;;;;;;;8.85;62.83;100676.38;5049848;28;20043;-71
2021/03/05 01:58:40;;;;;;;34.92;20.67;;;;;;;8.88;63.11;100666.31;5052288;28;20055;-74
2021/03/05 02:01:45;;;;;;;29.48;21.10;;;;;;;8.94;62.88;100659.63;5050759;28;20495;-73
2021/03/05 02:04:50;;;;;;;28.67;21.17;;;;;;;8.98;62.94;100661.97;5053234;28;20052;-74
2021/03/05 02:07:54;;;;;;;35.00;22.90;;;;;;;9.01;63.13;100659.03;5048840;28;20055;-77
2021/03/05 02:10:58;;;;;;;35.15;23.67;;;;;;;8.99;63.02;100662.81;5050810;28;20055;-73
2021/03/05 02:14:06;;;;;;;32.58;22.23;;;;;;;8.97;63.31;100659.41;5051125;28;20047;-73
2021/03/05 02:17:29;;;;;;;30.83;22.75;;;;;;;8.91;63.17;100667.91;5053087;28;20048;-73
2021/03/05 02:21:00;;;;;;;32.97;22.55;;;;;;;8.88;63.19;100646.72;5053264;28;20412;-73
2021/03/05 02:24:37;;;;;;;31.92;23.67;;;;;;;8.82;63.55;100649.84;5052197;28;20048;-73
2021/03/05 02:27:59;;;;;;;34.58;22.85;;;;;;;8.80;63.87;100647.31;5050985;28;20063;-73
2021/03/05 02:31:42;;;;;;;32.00;21.50;;;;;;;8.80;63.73;100633.06;5051932;28;20086;-72
2021/03/05 02:34:48;;;;;;;30.65;19.98;;;;;;;8.83;63.86;100630.16;5027786;28;20048;-73
2021/03/05 02:37:54;;;;;;;28.60;20.13;;;;;;;8.86;63.94;100625.41;5028491;28;20555;-74
2021/03/05 02:41:00;;;;;;;29.75;20.60;;;;;;;8.93;63.63;100625.81;5029163;28;20049;-74
2021/03/05 02:44:09;;;;;;;33.20;20.05;;;;;;;8.89;64.24;100616.28;5030173;28;20136;-72
2021/03/05 02:47:15;;;;;;;29.13;17.70;;;;;;;8.92;63.85;100622.28;5016751;28;20094;-71
2021/03/05 02:50:23;;;;;;;25.70;17.05;;;;;;;8.93;64.07;100615.97;5029445;28;20543;-72
2021/03/05 02:53:29;;;;;;;24.67;16.17;;;;;;;8.80;64.44;100617.00;5018785;28;20040;-76
2021/03/05 02:56:37;;;;;;;28.15;16.15;;;;;;;8.82;64.76;100617.72;5030892;28;20516;-78
2021/03/05 02:59:44;;;;;;;29.10;17.30;;;;;;;8.82;64.62;100623.09;5029297;28;20057;-75
2021/03/05 03:02:53;;;;;;;25.60;14.60;;;;;;;8.84;64.60;100621.16;5030245;28;20431;-72
2021/03/05 03:05:58;;;;;;;26.60;15.57;;;;;;;8.81;64.91;100619.56;5045281;28;20056;-72
2021/03/05 03:09:04;;;;;;;22.63;14.73;;;;;;;8.80;65.07;100617.00;5050444;28;20048;-73
2021/03/05 03:12:11;;;;;;;19.70;14.02;;;;;;;8.84;65.05;100618.50;5051821;28;20064;-74
2021/03/05 03:15:15;;;;;;;22.70;14.50;;;;;;;8.96;64.68;100620.22;5052705;28;20048;-74
2021/03/05 03:18:20;;;;;;;22.60;13.55;;;;;;;8.90;65.19;100616.19;5050710;28;20044;-76
2021/03/05 03:21:26;;;;;;;27.55;14.57;;;;;;;8.93;65.35;100615.97;5051520;28;20399;-80
2021/03/05 03:24:33;;;;;;;20.23;14.35;;;;;;;8.97;65.40;100619.25;5052039;28;20040;-76
2021/03/05 03:27:38;;;;;;;19.38;13.98;;;;;;;9.01;65.19;100618.03;5050250;28;20522;-72
2021/03/05 03:30:42;;;;;;;18.60;12.80;;;;;;;9.09;64.85;100626.31;5050923;28;20048;-73
2021/03/05 03:33:46;;;;;;;23.38;13.80;;;;;;;9.13;64.89;100622.44;5050571;28;20044;-72
2021/03/05 03:36:55;;;;;;;16.42;12.43;;;;;;;9.08;64.71;100621.94;5051095;28;20496;-72
2021/03/05 03:40:01;;;;;;;19.80;13.13;;;;;;;8.96;64.76;100615.69;5050464;28;20052;-77
2021/03/05 03:43:06;;;;;;;21.48;13.82;;;;;;;8.89;65.07;100616.28;5048606;28;20052;-76
2021/03/05 03:46:11;;;;;;;18.88;12.63;;;;;;;8.88;64.94;100627.97;5055952;28;20047;-77
2021/03/05 03:49:25;;;;;;;20.77;13.95;;;;;;;8.86;65.19;100625.41;5056415;28;20064;-72
2021/03/05 03:52:36;;;;;;;;;;;;;;;8.83;65.02;100628.34;5055941;28;20052;-74
2021/03/05 03:55:40;;;;;;;27.02;14.65;;;;;;;8.80;65.29;100622.34;5054247;28;19916;-73
2021/03/05 03:58:48;;;;;;;19.73;13.77;;;;;;;8.82;65.33;100628.44;5053847;28;20052;-72
2021/03/05 04:01:55;;;;;;;20.52;14.65;;;;;;;8.86;65.29;100630.75;5055628;28;20056;-73
2021/03/05 04:05:05;;;;;;;23.20;14.75;;;;;;;8.91;65.00;100630.44;5053959;28;20040;-73
2021/03/05 04:08:17;;;;;;;25.67;14.98;;;;;;;8.89;65.06;100627.00;5054292;28;20499;-74
2021/03/05 04:11:23;;;;;;;25.15;15.43;;;;;;;8.86;65.17;100637.97;5053621;28;20056;-77
2021/03/05 04:14:27;;;;;;;26.13;16.13;;;;;;;8.78;65.80;100621.63;5054954;28;20063;-74
2021/03/05 04:17:31;;;;;;;23.65;15.25;;;;;;;8.78;66.10;100629.66;5054770;28;20048;-77
2021/03/05 04:20:38;;;;;;;26.65;17.27;;;;;;;8.71;66.31;100621.25;5055734;28;20052;-76
2021/03/05 04:23:42;;;;;;;27.45;17.42;;;;;;;8.75;66.42;100613.81;5053960;28;20048;-73
2021/03/05 04:26:46;;;;;;;26.85;15.77;;;;;;;8.74;66.59;100620.16;5054395;28;20392;-72
2021/03/05 04:29:51;;;;;;;24.73;15.68;;;;;;;8.78;66.46;100613.59;5055238;28;20076;-72
2021/03/05 04:32:55;;;;;;;25.27;15.90;;;;;;;8.86;66.54;100620.03;5055439;28;20056;-74
2021/03/05 04:35:59;;;;;;;20.90;15.23;;;;;;;8.87;66.27;100611.06;5048586;28;20047;-74
2021/03/05 04:39:05;;;;;;;22.25;15.77;;;;;;;8.91;66.39;100606.34;5053327;28;20064;-74
2021/03/05 04:42:09;;;;;;;23.58;15.40;;;;;;;8.91;66.26;100612.53;5049518;28;20147;-73
2021/03/05 04:45:13;;;;;;;23.75;14.55;;;;;;;8.86;66.13;100605.84;5053684;28;20048;-76
2021/03/05 04:48:18;;;;;;;22.52;13.63;;;;;;;8.79;66.39;100601.94;5052684;28;20052;-77
2021/03/05 04:51:22;;;;;;;22.63;14.00;;;;;;;8.77;66.31;100598.50;5049648;28;20044;-74
2021/03/05 04:54:26;;;;;;;22.98;13.77;;;;;;;8.77;66.47;100590.47;5053798;28;20068;-77
2021/03/05 04:57:32;;;;;;;20.40;13.43;;;;;;;8.80;66.48;100612.50;5045377;28;20044;-74
2021/03/05 05:00:36;;;;;;;18.65;13.07;;;;;;;8.80;66.63;100612.50;5052834;28;20048;-77
2021/03/05 05:03:40;;;;;;;21.52;13.23;;;;;;;8.78;66.50;100609.09;5045485;28;20052;-77
2021/03/05 05:06:45;;;;;;;23.92;14.50;;;;;;;8.75;66.76;100620.03;5048641;28;20048;-77
2021/03/05 05:09:49;;;;;;;;;;;;;;;8.67;67.31;100616.22;5053495;28;20053;-81
2021/03/05 05:12:53;;;;;;;21.60;15.70;;;;;;;8.68;67.93;100621.47;5049257;28;19924;-77
2021/03/05 05:15:58;;;;;;;25.05;18.00;;;;;;;8.63;68.57;100610.25;5053094;28;20499;-82
2021/03/05 05:19:03;;;;;;;25.42;18.98;;;;;;;8.64;68.97;100603.09;5050055;28;20044;-77
2021/03/05 05:22:07;;;;;;;30.15;19.33;;;;;;;8.64;69.28;100603.91;5046848;28;20053;-81
2021/03/05 05:25:11;;;;;;;28.08;17.55;;;;;;;8.59;69.39;100602.59;5051672;28;20064;-72
2021/03/05 05:28:16;;;;;;;21.58;17.85;;;;;;;8.61;69.57;100592.63;5048624;28;20048;-73
2021/03/05 05:31:20;;;;;;;35.75;18.80;;;;;;;8.67;69.55;100602.84;5053172;28;20064;-74
2021/03/05 05:34:25;;;;;;;28.77;18.45;;;;;;;8.71;69.47;100602.50;5046585;28;20048;-72
2021/03/05 05:37:29;;;;;;;31.20;19.35;;;;;;;8.72;69.66;100585.47;5051376;28;20055;-79
2021/03/05 05:40:33;;;;;;;26.55;19.25;;;;;;;8.72;69.52;100590.81;5051846;28;20515;-79
2021/03/05 05:43:38;;;;;;;27.83;17.52;;;;;;;8.75;69.34;100595.09;5049004;28;20060;-73
2021/03/05 05:46:42;;;;;;;27.65;18.00;;;;;;;8.71;69.42;100591.81;5050909;28;20040;-74
2021/03/05 05:49:48;;;;;;;27.58;19.17;;;;;;;8.69;68.78;100595.56;5050348;28;20052;-73
2021/03/05 05:52:55;;;;;;;27.33;17.88;;;;;;;8.76;68.66;100591.44;5049861;28;20060;-75
2021/03/05 05:55:59;;;;;;;30.27;18.63;;;;;;;8.76;68.90;100594.13;5051494;28;20040;-72
2021/03/05 05:59:04;;;;;;;27.52;18.95;;;;;;;8.73;69.01;100591.69;5049882;28;20396;-81
2021/03/05 06:02:10;;;;;;;31.40;19.15;;;;;;;8.75;68.98;100590.59;5052592;28;20518;-72
2021/03/05 06:05:15;;;;;;;31.33;19.88;;;;;;;8.75;68.93;100593.28;5052221;28;20052;-72
2021/03/05 06:08:20;;;;;;;28.17;19.63;;;;;;;8.82;68.90;100594.50;5046809;28;20495;-78
2021/03/05 06:11:31;;;;;;;31.50;21.17;;;;;;;8.91;68.67;100603.66;5052025;28;20052;-73
2021/03/05 06:14:36;;;;;;;124.20;78.95;;;;;;;8.93;68.87;100594.53;5046391;28;20048;-77
2021/03/05 06:17:41;;;;;;;57.85;36.90;;;;;;;9.01;68.41;100602.81;5049360;28;20404;-77
2021/03/05 06:20:46;;;;;;;33.55;20.58;;;;;;;8.97;68.24;100604.03;5048252;28;20076;-73
2021/03/05 06:23:58;;;;;;;29.63;17.65;;;;;;;8.94;68.22;100609.63;5049247;28;20060;-72
2021/03/05 06:27:03;;;;;;;25.58;16.92;;;;;;;8.95;68.50;100607.81;5051209;28;20404;-72
2021/03/05 06:30:09;;;;;;;26.00;16.27;;;;;;;8.86;68.61;100595.13;5048495;28;20048;-76
2021/03/05 06:33:27;;;;;;;40.63;17.48;;;;;;;8.85;68.82;100604.97;5052562;28;20076;-72
2021/03/05 06:36:32;;;;;;;29.33;17.05;;;;;;;8.93;68.82;100613.28;5050413;28;20049;-77
2021/03/05 06:39:36;;;;;;;24.70;16.88;;;;;;;8.96;68.52;100606.84;5047572;28;20519;-73
2021/03/05 06:43:07;;;;;;;26.52;15.98;;;;;;;8.98;68.73;100611.09;5045684;28;20047;-72
2021/03/05 06:46:36;;;;;;;31.08;18.13;;;;;;;8.94;68.99;100603.41;5041051;28;20052;-73
2021/03/05 06:49:42;;;;;;;24.50;16.48;;;;;;;8.93;68.90;100599.03;5041589;28;20049;-76
2021/03/05 06:52:46;;;;;;;33.05;21.38;;;;;;;9.04;69.18;100599.91;5032478;28;20072;-77
2021/03/05 06:55:52;;;;;;;27.15;17.33;;;;;;;9.06;68.95;100597.13;5047959;28;20503;-76
2021/03/05 06:59:01;;;;;;;25.75;16.38;;;;;;;9.14;68.64;100605.38;5041377;28;20148;-77
2021/03/05 07:02:09;;;;;;;32.05;17.02;;;;;;;9.24;68.57;100611.75;5032107;28;20051;-82
2021/03/05 07:05:16;;;;;;;27.38;16.48;;;;;;;9.31;68.30;100606.78;5036656;28;20048;-81
2021/03/05 07:08:39;;;;;;;29.95;17.95;;;;;;;9.20;68.33;100610.28;5035647;28;20044;-82
2021/03/05 07:11:46;;;;;;;28.30;17.90;;;;;;;9.33;68.23;100608.38;5033096;28;20049;-78
2021/03/05 07:15:02;;;;;;;35.85;20.10;;;;;;;9.25;68.63;100613.47;5044574;28;20071;-86
2021/03/05 07:18:06;;;;;;;35.75;20.15;;;;;;;9.25;69.11;100617.97;5039300;28;20405;-88
2021/03/05 07:21:15;;;;;;;37.35;20.65;;;;;;;9.25;69.50;100615.28;5042747;28;20061;-89
2021/03/05 07:24:22;;;;;;;36.33;19.13;;;;;;;9.30;69.54;100610.41;5039628;28;20049;-89
2021/03/05 07:27:38;;;;;;;31.48;18.35;;;;;;;9.27;69.44;100614.19;5052488;28;20044;-87
2021/03/05 07:30:45;;;;;;;26.55;16.70;;;;;;;9.29;69.52;100612.22;5042179;28;20052;-86
2021/03/05 07:33:53;;;;;;;32.25;17.48;;;;;;;9.32;69.93;100614.69;5050931;28;20056;-87
2021/03/05 07:37:00;;;;;;;26.10;16.20;;;;;;;9.34;69.91;100614.53;5036180;28;20060;-76
2021/03/05 07:40:17;;;;;;;28.42;16.33;;;;;;;9.48;69.31;100617.00;5047579;28;20052;-79
2021/03/05 07:43:22;;;;;;;28.00;16.70;;;;;;;9.73;68.87;100622.97;5043354;28;20503;-73
2021/03/05 07:46:27;;;;;;;41.47;17.50;;;;;;;9.85;68.36;100623.78;5031980;28;20068;-77
2021/03/05 07:49:33;;;;;;;68.60;21.17;;;;;;;10.03;68.23;100618.78;5043393;28;20052;-77
2021/03/05 07:52:38;;;;;;;69.35;19.58;;;;;;;10.19;67.70;100628.19;5046247;28;20407;-73
2021/03/05 07:55:43;;;;;;;33.28;17.25;;;;;;;10.21;67.47;100622.69;5046633;28;20041;-74
2021/03/05 07:58:48;;;;;;;31.42;16.65;;;;;;;10.31;67.18;100623.63;5051004;28;20036;-77
2021/03/05 08:01:52;;;;;;;31.45;16.98;;;;;;;10.36;66.79;100626.78;5038476;28;20041;-77
2021/03/05 08:08:08;;;;;;;44.80;16.65;;;;;;;10.60;65.38;100624.75;5049073;28;20045;-73
2021/03/05 08:11:25;;;;;;;28.83;14.35;;;;;;;10.81;64.91;100628.31;5047563;28;20044;-74
2021/03/05 08:14:29;;;;;;;25.38;14.73;;;;;;;10.99;64.45;100626.75;5035073;28;20045;-77
2021/03/05 08:17:38;;;;;;;31.15;16.65;;;;;;;11.13;64.56;100630.97;5051923;28;20045;-76
2021/03/05 08:20:42;;;;;;;36.17;17.25;;;;;;;11.25;64.27;100627.22;5052814;28;20037;-76
2021/03/05 08:24:23;;;;;;;36.67;17.83;;;;;;;11.42;63.42;100626.59;5051565;28;20424;-73
2021/03/05 08:27:31;;;;;;;30.27;18.05;;;;;;;11.56;63.30;100628.06;5051751;28;20045;-73
2021/03/05 08:30:35;;;;;;;26.00;17.50;;;;;;;11.73;62.90;100624.78;5053294;28;20033;-79
2021/03/05 08:33:39;;;;;;;28.60;18.48;;;;;;;12.22;61.40;100621.28;5055780;28;20049;-72
2021/03/05 08:36:48;;;;;;;33.53;18.40;;;;;;;13.37;57.83;100621.28;5053072;28;20041;-74
2021/03/05 08:40:21;;;;;;;28.42;16.50;;;;;;;16.43;49.79;100613.19;5044416;28;20045;-73
2021/03/05 08:43:26;;;;;;;29.00;15.52;;;;;;;21.15;38.48;100603.06;5054454;28;20049;-76
2021/03/05 08:46:30;;;;;;;24.98;13.98;;;;;;;25.26;31.10;100580.72;5056064;28;20049;-71
2021/03/05 08:49:35;;;;;;;27.73;14.60;;;;;;;29.27;25.58;100584.94;5034978;28;20428;-74
2021/03/05 08:52:45;;;;;;;22.95;14.18;;;;;;;28.62;25.53;100579.84;5036078;28;20034;-73
2021/03/05 08:55:53;;;;;;;26.50;15.52;;;;;;;30.29;23.12;100573.16;5037519;28;20049;-74
2021/03/05 08:59:02;;;;;;;23.65;15.55;;;;;;;29.47;24.82;100572.28;5055562;28;20044;-76
2021/03/05 09:02:13;;;;;;;23.55;14.60;;;;;;;31.66;22.40;100566.22;5046343;28;20397;-81
2021/03/05 09:05:26;;;;;;;21.42;12.85;;;;;;;32.91;20.99;100576.25;5034917;28;20492;-76
2021/03/05 09:08:30;;;;;;;17.42;10.77;;;;;;;32.03;21.73;100584.53;5035775;28;20034;-74
2021/03/05 09:11:34;;;;;;;14.90;9.82;;;;;;;31.12;22.83;100571.88;5035601;28;20042;-74
2021/03/05 09:14:41;;;;;;;16.02;10.48;;;;;;;32.13;21.55;100573.47;5035667;28;20405;-77
2021/03/05 09:17:45;;;;;;;19.27;10.82;;;;;;;31.65;21.97;100578.44;5045710;28;20049;-77
2021/03/05 09:20:57;;;;;;;18.85;9.25;;;;;;;31.52;22.15;100571.41;5037930;28;20040;-73
2021/03/05 09:24:00;;;;;;;15.52;10.18;;;;;;;30.82;23.08;100577.94;5053715;28;20051;-77
2021/03/05 09:27:18;;;;;;;19.35;10.82;;;;;;;30.82;23.26;100579.88;5042607;28;20045;-71
2021/03/05 09:30:26;;;;;;;18.35;10.27;;;;;;;28.47;25.96;100579.53;5054752;28;20049;-72
2021/03/05 09:33:41;;;;;;;22.65;11.35;;;;;;;28.74;25.70;100575.09;5052056;28;20070;-72
2021/03/05 09:36:45;;;;;;;16.40;10.05;;;;;;;29.59;24.64;100574.94;5054431;28;20040;-72
2021/03/05 09:39:52;;;;;;;15.43;10.90;;;;;;;30.25;24.13;100572.00;5054821;28;20412;-73
2021/03/05 09:43:00;;;;;;;20.55;11.02;;;;;;;29.55;23.98;100565.47;5054545;28;20053;-72
2021/03/05 09:46:28;;;;;;;21.63;11.73;;;;;;;28.20;26.35;100570.13;5053612;28;20399;-72
2021/03/05 09:49:33;;;;;;;24.90;15.07;;;;;;;25.59;28.88;100573.03;5054668;28;20480;-74
2021/03/05 09:52:37;;;;;;;21.52;13.68;;;;;;;24.08;31.74;100574.03;5053869;28;20041;-71
2021/03/05 09:55:49;;;;;;;28.92;14.45;;;;;;;22.37;34.58;100580.50;5054425;28;20041;-72
2021/03/05 09:59:02;;;;;;;30.05;15.25;;;;;;;21.18;36.70;100576.19;5054145;28;20049;-71
2021/03/05 10:02:07;;;;;;;24.95;16.52;;;;;;;20.53;38.69;100584.59;5053902;28;20037;-75
2021/03/05 10:05:12;;;;;;;24.95;17.88;;;;;;;20.10;39.53;100585.50;5053476;28;20041;-72
2021/03/05 10:08:20;;;;;;;25.65;17.42;;;;;;;19.86;40.76;100583.94;5054391;28;20041;-76
2021/03/05 10:11:35;;;;;;;27.00;17.20;;;;;;;19.50;41.98;100583.00;5054541;28;20041;-77
2021/03/05 10:14:41;;;;;;;29.27;16.67;;;;;;;19.52;42.50;100577.38;5054721;28;20045;-83
2021/03/05 10:17:46;;;;;;;27.13;17.08;;;;;;;19.32;42.34;100583.31;5051792;28;20040;-71
2021/03/05 10:20:51;;;;;;;29.40;18.42;;;;;;;19.11;41.12;100585.06;5054287;28;20048;-73
2021/03/05 10:23:56;;;;;;;30.02;19.00;;;;;;;18.74;43.30;100588.56;5053623;28;20049;-71
2021/03/05 10:27:19;;;;;;;28.40;18.90;;;;;;;18.35;43.73;100583.22;5053718;28;20049;-71
2021/03/05 10:30:24;;;;;;;32.20;19.98;;;;;;;17.99;45.04;100584.78;5053732;28;20041;-71
2021/03/05 10:33:57;;;;;;;35.63;19.45;;;;;;;17.97;45.49;100592.25;5053600;28;20491;-73
2021/03/05 10:37:04;;;;;;;32.00;20.27;;;;;;;17.61;46.37;100588.28;5051733;28;20448;-74
2021/03/05 10:40:11;;;;;;;29.85;21.05;;;;;;;17.37;47.41;100584.59;5051572;28;20037;-71
2021/03/05 10:43:15;;;;;;;34.90;20.33;;;;;;;17.80;46.70;100586.00;5040127;28;20036;-75
2021/03/05 10:46:20;;;;;;;42.33;21.50;;;;;;;17.43;47.08;100578.47;5051393;28;20531;-72
2021/03/05 10:49:25;;;;;;;35.80;21.70;;;;;;;17.35;46.98;100580.38;5039826;28;20053;-74
2021/03/05 10:52:29;;;;;;;35.83;21.75;;;;;;;17.60;46.65;100584.75;5033668;28;20033;-72
2021/03/05 10:55:33;;;;;;;36.47;22.10;;;;;;;17.86;46.58;100589.91;5011552;28;20477;-73
2021/03/05 10:58:37;;;;;;;29.17;21.67;;;;;;;17.78;46.59;100588.06;5024679;28;20069;-73
2021/03/05 11:01:41;;;;;;;29.52;20.95;;;;;;;17.88;45.92;100580.56;5031471;28;20046;-74
2021/03/05 11:04:45;;;;;;;36.00;22.20;;;;;;;17.91;45.65;100574.78;5031797;28;20049;-71
2021/03/05 11:07:51;;;;;;;31.98;19.70;;;;;;;17.89;47.20;100575.97;5031442;28;20054;-78
2021/03/05 11:10:55;;;;;;;33.53;20.70;;;;;;;17.53;46.97;100578.31;5031468;28;20037;-75
2021/03/05 11:13:59;;;;;;;32.50;20.35;;;;;;;17.62;46.24;100571.00;5050171;28;20048;-73
2021/03/05 11:17:04;;;;;;;34.30;22.15;;;;;;;17.80;46.48;100582.47;5052814;28;20033;-71
2021/03/05 11:20:08;;;;;;;32.38;21.35;;;;;;;17.79;46.37;100572.63;5052216;28;20041;-74
2021/03/05 11:23:13;;;;;;;33.67;22.20;;;;;;;17.50;47.22;100560.47;5053452;28;20045;-71
2021/03/05 11:26:18;;;;;;;32.60;23.05;;;;;;;17.39;47.75;100560.84;5053024;28;20037;-71
2021/03/05 11:29:22;;;;;;;34.80;22.08;;;;;;;17.09;48.16;100561.56;5053243;28;20037;-72
2021/03/05 11:32:27;;;;;;;36.50;22.80;;;;;;;17.07;48.69;100560.06;5052939;28;20041;-72
2021/03/05 11:35:32;;;;;;;35.17;22.27;;;;;;;17.15;48.42;100555.47;5053474;28;20037;-73
2021/03/05 11:38:38;;;;;;;27.92;20.50;;;;;;;17.37;48.06;100552.03;5053178;28;20040;-72
2021/03/05 11:41:42;;;;;;;33.60;21.50;;;;;;;17.62;47.93;100554.72;5052477;28;20040;-72
2021/03/05 11:44:46;;;;;;;46.05;20.77;;;;;;;17.64;46.87;100547.22;5075224;28;20041;-72
2021/03/05 11:47:51;;;;;;;35.63;19.58;;;;;;;17.73;45.97;100549.72;5051729;28;20420;-72
2021/03/05 11:50:55;;;;;;;33.92;18.83;;;;;;;17.85;45.67;100547.50;5052069;28;20060;-71
2021/03/05 11:53:59;;;;;;;30.80;18.75;;;;;;;17.91;46.17;100538.63;5052866;28;20053;-72
2021/03/05 11:57:04;;;;;;;27.42;17.98;;;;;;;17.78;45.63;100536.47;5052957;28;20048;-72
2021/03/05 12:00:09;;;;;;;29.48;19.10;;;;;;;17.92;46.25;100541.19;5052654;28;20045;-71
2021/03/05 12:03:13;;;;;;;27.33;17.58;;;;;;;18.18;44.88;100535.41;5052930;28;20041;-72
2021/03/05 12:06:17;;;;;;;26.83;15.35;;;;;;;18.37;44.27;100534.94;5053946;28;20049;-72
2021/03/05 12:09:22;;;;;;;29.70;17.70;;;;;;;18.23;44.98;100527.56;5055946;28;20052;-72
2021/03/05 12:12:26;;;;;;;27.50;16.67;;;;;;;18.40;44.42;100531.03;5044478;28;20053;-73
2021/03/05 12:15:31;;;;;;;30.50;19.27;;;;;;;18.28;44.69;100525.16;5053505;28;20045;-72
2021/03/05 12:18:36;;;;;;;28.77;17.38;;;;;;;18.20;44.80;100512.47;5055979;28;20045;-72
2021/03/05 12:21:40;;;;;;;25.23;19.02;;;;;;;18.14;45.08;100520.50;5056624;28;20041;-72
2021/03/05 12:24:45;;;;;;;36.17;19.00;;;;;;;18.07;46.05;100516.81;5055539;28;20045;-73
2021/03/05 12:27:49;;;;;;;31.17;18.27;;;;;;;18.14;45.34;100509.66;5055463;28;20049;-72
2021/03/05 12:30:53;;;;;;;31.77;17.92;;;;;;;18.20;44.46;100508.91;5056067;28;20049;-73
2021/03/05 12:33:58;;;;;;;29.73;17.58;;;;;;;18.10;44.75;100503.72;5055126;28;20060;-73
2021/03/05 12:37:03;;;;;;;27.17;17.75;;;;;;;17.94;45.33;100505.69;5046556;28;20045;-74
2021/03/05 12:40:08;;;;;;;33.90;18.75;;;;;;;17.82;44.85;100507.13;5053328;28;20049;-72
2021/03/05 12:43:12;;;;;;;40.92;24.08;;;;;;;17.72;48.40;100510.03;5046431;28;20041;-73
2021/03/05 12:46:16;;;;;;;33.90;21.50;;;;;;;17.72;48.64;100511.91;5054703;28;20048;-73
2021/03/05 12:49:21;;;;;;;30.58;21.42;;;;;;;17.47;48.61;100503.00;5054716;28;20064;-76
2021/03/05 12:52:25;;;;;;;42.58;25.85;;;;;;;17.26;50.41;100494.56;5053626;28;20488;-73
2021/03/05 12:55:29;;;;;;;33.85;24.30;;;;;;;17.28;50.13;100498.78;5054690;28;20041;-71
2021/03/05 12:58:34;;;;;;;36.50;25.70;;;;;;;17.17;50.76;100501.88;5024088;28;20045;-70
2021/03/05 13:01:39;;;;;;;36.72;25.67;;;;;;;17.00;51.34;100491.25;5054589;28;20045;-72
2021/03/05 13:04:43;;;;;;;36.65;25.98;;;;;;;16.93;51.15;100496.53;5051216;28;20042;-72
2021/03/05 13:07:47;;;;;;;32.67;24.02;;;;;;;16.85;51.43;100491.94;5042358;28;20049;-71
2021/03/05 13:10:52;;;;;;;42.63;26.45;;;;;;;16.71;51.81;100499.94;5053828;28;20045;-70
2021/03/05 13:13:57;;;;;;;39.40;25.65;;;;;;;16.47;52.04;100489.91;5055890;28;20380;-71
2021/03/05 13:17:01;;;;;;;40.33;24.60;;;;;;;16.59;52.01;100490.47;5055390;28;20041;-71
2021/03/05 13:20:10;;;;;;;35.70;24.60;;;;;;;16.80;51.52;100486.19;5055871;28;20388;-71
2021/03/05 13:23:15;;;;;;;32.70;21.40;;;;;;;16.83;50.06;100482.28;5054699;28;20395;-71
2021/03/05 13:26:19;;;;;;;28.52;16.27;;;;;;;16.90;48.45;100486.88;5043343;28;20485;-72
2021/03/05 13:29:24;;;;;;;26.52;11.95;;;;;;;17.07;47.42;100484.09;5037415;28;20045;-71
2021/03/05 13:32:29;;;;;;;22.63;9.57;;;;;;;17.16;45.94;100488.50;5054046;28;20400;-73
2021/03/05 13:35:33;;;;;;;30.05;9.70;;;;;;;17.18;45.43;100487.31;5054650;28;20404;-71
2021/03/05 13:38:38;;;;;;;22.48;9.43;;;;;;;17.17;45.15;100485.59;5055015;28;20044;-75
2021/03/05 13:41:43;;;;;;;25.38;9.70;;;;;;;17.22;45.22;100480.50;5035226;28;20044;-72
2021/03/05 13:44:47;;;;;;;23.60;10.80;;;;;;;17.18;45.76;100476.47;5034967;28;20052;-71
2021/03/05 13:47:52;;;;;;;19.95;9.90;;;;;;;17.12;46.10;100477.16;5035072;28;20049;-70
2021/03/05 13:50:56;;;;;;;21.42;10.50;;;;;;;17.03;46.20;100477.34;5049597;28;20052;-70
2021/03/05 13:54:00;;;;;;;26.10;10.20;;;;;;;16.94;45.67;100481.09;5034898;28;20053;-72
2021/03/05 13:57:06;;;;;;;21.25;9.35;;;;;;;16.99;45.92;100475.97;5044454;28;20045;-76
2021/03/05 14:00:11;;;;;;;25.35;9.23;;;;;;;16.94;46.21;100472.97;5053836;28;20071;-71
2021/03/05 14:03:15;;;;;;;23.15;9.57;;;;;;;17.06;45.70;100472.41;5053516;28;20068;-71
2021/03/05 14:06:19;;;;;;;22.27;9.15;;;;;;;17.12;45.61;100474.44;5047115;28;20076;-71
2021/03/05 14:09:24;;;;;;;27.40;10.48;;;;;;;17.09;45.81;100461.22;5058048;28;20053;-74
2021/03/05 14:12:29;;;;;;;22.92;9.45;;;;;;;17.21;45.93;100475.25;5054387;28;20049;-71
2021/03/05 14:15:35;;;;;;;29.67;9.93;;;;;;;17.17;45.35;100469.34;5052193;28;20052;-71
2021/03/05 14:18:40;;;;;;;22.38;9.77;;;;;;;17.15;46.51;100476.81;5054209;28;20052;-72